Time;durP1;ratioP1;P1;durP2;ratioP2;P2;SDS_P1;SDS_P2;PMS_P1;PMS_P2;Temp;Humidity;BMP_temperature;BMP_pressure;BME280_temperature;BME280_humidity;BME280_pressure;Samples;Min_cycle;Max_cycle;Signal;HPM_P1;HPM_P2
2022/05/23 00:01:14;;;;;;;0.00;0.00;;;21.50;61.50;;;;;;4161781;28;20472;-64
2022/05/23 00:03:36;;;;;;;1.67;0.43;;;21.50;61.50;;;;;;4161152;28;20103;-64
2022/05/23 00:05:58;;;;;;;0.00;0.00;;;21.50;61.60;;;;;;4144979;28;20064;-64
2022/05/23 00:08:23;;;;;;;0.00;0.00;;;21.50;61.60;;;;;;4144733;28;20049;-64
2022/05/23 00:10:47;;;;;;;0.63;0.63;;;21.50;61.60;;;;;;4144746;28;20053;-64
2022/05/23 00:13:09;;;;;;;0.00;0.00;;;21.50;61.60;;;;;;4144799;28;20459;-63
2022/05/23 00:15:31;;;;;;;0.00;0.00;;;21.50;61.60;;;;;;4158819;28;20037;-63
2022/05/23 00:17:52;;;;;;;0.00;0.00;;;21.40;61.60;;;;;;4161062;28;20045;-63
2022/05/23 00:20:19;;;;;;;0.00;0.00;;;21.50;61.60;;;;;;4160927;28;20049;-64
2022/05/23 00:22:41;;;;;;;0.38;0.38;;;21.40;61.70;;;;;;4160776;28;20057;-63
2022/05/23 00:25:04;;;;;;;0.00;0.00;;;21.40;61.60;;;;;;4160938;28;20056;-64
2022/05/23 00:27:28;;;;;;;0.00;0.00;;;21.40;61.70;;;;;;4161108;28;20045;-63
2022/05/23 00:29:50;;;;;;;0.00;0.00;;;21.40;61.70;;;;;;4160401;28;20056;-65
2022/05/23 00:37:31;;;;;;;4.90;1.05;;;21.40;61.80;;;;;;4160606;28;20099;-65
2022/05/23 00:39:53;;;;;;;0.00;0.00;;;21.40;61.80;;;;;;4145132;28;20072;-65
2022/05/23 00:45:00;;;;;;;0.00;0.00;;;21.40;61.80;;;;;;4144233;28;20045;-65
2022/05/23 00:47:24;;;;;;;0.00;0.00;;;21.30;61.80;;;;;;4144136;28;20045;-65
2022/05/23 00:49:47;;;;;;;0.00;0.00;;;21.40;61.90;;;;;;4115752;28;20074;-65
2022/05/23 00:52:16;;;;;;;0.10;0.10;;;21.30;61.80;;;;;;4146527;28;20088;-65
2022/05/23 00:54:42;;;;;;;0.13;0.13;;;21.30;61.90;;;;;;4159978;28;20045;-63
2022/05/23 00:57:06;;;;;;;0.00;0.00;;;21.30;61.90;;;;;;4145494;28;20457;-63
2022/05/23 00:59:31;;;;;;;0.00;0.00;;;21.30;61.90;;;;;;4145365;28;20498;-64
2022/05/23 01:01:55;;;;;;;0.00;0.00;;;21.30;62.10;;;;;;4131621;28;20101;-64
2022/05/23 01:04:31;;;;;;;0.00;0.00;;;21.30;62.10;;;;;;4128860;28;20078;-64
2022/05/23 01:06:53;;;;;;;0.00;0.00;;;21.30;62.10;;;;;;4128798;28;20053;-64
2022/05/23 01:09:16;;;;;;;0.30;0.30;;;21.30;62.00;;;;;;4129017;28;20120;-64
2022/05/23 01:11:39;;;;;;;0.00;0.00;;;21.30;61.90;;;;;;4140288;28;20096;-63
2022/05/23 01:14:01;;;;;;;0.00;0.00;;;21.20;61.80;;;;;;4145668;28;20078;-63
2022/05/23 01:16:26;;;;;;;0.10;0.10;;;21.20;61.90;;;;;;4145142;28;20053;-63
2022/05/23 01:18:54;;;;;;;0.00;0.00;;;21.20;61.80;;;;;;4145069;28;20116;-64
2022/05/23 01:21:23;;;;;;;0.00;0.00;;;21.20;61.90;;;;;;4159867;28;20504;-64
2022/05/23 01:23:51;;;;;;;0.00;0.00;;;21.20;62.80;;;;;;4159828;28;20049;-64
2022/05/23 01:26:19;;;;;;;0.10;0.10;;;21.20;62.00;;;;;;4144865;28;20136;-64
2022/05/23 01:28:46;;;;;;;0.00;0.00;;;21.20;62.00;;;;;;4145103;28;20564;-64
2022/05/23 01:31:26;;;;;;;0.00;0.00;;;21.20;62.10;;;;;;4144426;28;20049;-64
2022/05/23 01:33:49;;;;;;;0.00;0.00;;;21.20;62.10;;;;;;4145206;28;20048;-68
2022/05/23 01:36:13;;;;;;;0.00;0.00;;;21.20;62.10;;;;;;4145027;28;20042;-66
2022/05/23 01:38:36;;;;;;;13.35;2.53;;;21.20;62.10;;;;;;4143448;28;20129;-65
2022/05/23 01:41:06;;;;;;;0.10;0.10;;;21.10;62.00;;;;;;4156277;28;20526;-65
2022/05/23 01:43:31;;;;;;;0.00;0.00;;;21.10;62.10;;;;;;4128548;28;20042;-64
2022/05/23 01:46:16;;;;;;;0.00;0.00;;;21.10;62.10;;;;;;4142791;28;20042;-64
2022/05/23 01:48:51;;;;;;;0.00;0.00;;;21.10;62.10;;;;;;4144090;28;20057;-63
2022/05/23 01:51:14;;;;;;;0.00;0.00;;;21.10;62.90;;;;;;4131293;28;20050;-64
2022/05/23 01:53:36;;;;;;;0.00;0.00;;;21.10;62.10;;;;;;4144688;28;20050;-63
2022/05/23 01:56:03;;;;;;;0.00;0.00;;;21.10;62.20;;;;;;4144633;28;20050;-64
2022/05/23 02:01:26;;;;;;;0.03;0.03;;;21.10;62.30;;;;;;4144678;28;20485;-64
2022/05/23 02:03:52;;;;;;;0.00;0.00;;;21.00;62.20;;;;;;4144373;28;20319;-64
2022/05/23 02:06:16;;;;;;;0.00;0.00;;;21.00;62.20;;;;;;4159484;28;20440;-64
2022/05/23 02:08:41;;;;;;;0.00;0.00;;;21.00;62.20;;;;;;4141816;28;20074;-62
2022/05/23 02:11:05;;;;;;;0.00;0.00;;;21.00;62.20;;;;;;4143735;28;20481;-63
2022/05/23 02:13:31;;;;;;;0.00;0.00;;;21.00;62.50;;;;;;4128291;28;20049;-63
2022/05/23 02:15:55;;;;;;;0.00;0.00;;;21.10;62.80;;;;;;4128483;28;20097;-64
2022/05/23 02:18:35;;;;;;;0.00;0.00;;;21.00;62.60;;;;;;4144517;28;20097;-63
2022/05/23 02:20:59;;;;;;;0.00;0.00;;;21.00;62.50;;;;;;4144482;28;20478;-64
2022/05/23 02:23:21;;;;;;;0.00;0.00;;;21.00;62.50;;;;;;4144074;28;20474;-63
2022/05/23 02:25:44;;;;;;;2.50;0.90;;;21.00;62.40;;;;;;4144505;28;20050;-63
2022/05/23 02:28:32;;;;;;;0.00;0.00;;;21.00;62.40;;;;;;4159018;28;20055;-63
2022/05/23 02:30:56;;;;;;;0.00;0.00;;;20.90;62.40;;;;;;4144318;28;20042;-63
2022/05/23 02:33:31;;;;;;;0.00;0.00;;;20.90;62.50;;;;;;4144367;28;20069;-63
2022/05/23 02:36:13;;;;;;;0.00;0.00;;;20.90;62.40;;;;;;4159739;28;20038;-63
2022/05/23 02:38:35;;;;;;;0.00;0.00;;;20.90;62.40;;;;;;4158797;28;20041;-63
2022/05/23 02:40:58;;;;;;;0.00;0.00;;;20.90;62.40;;;;;;4145044;28;20409;-63
2022/05/23 02:43:20;;;;;;;0.20;0.20;;;20.90;62.50;;;;;;4131020;28;20160;-64
2022/05/23 02:45:45;;;;;;;0.00;0.00;;;20.90;62.40;;;;;;4144384;28;20504;-64
2022/05/23 02:48:09;;;;;;;0.00;0.00;;;20.90;62.50;;;;;;4144199;28;20053;-63
2022/05/23 02:50:31;;;;;;;0.00;0.00;;;20.90;62.40;;;;;;4144821;28;20100;-63
2022/05/23 02:52:53;;;;;;;0.00;0.00;;;20.90;62.50;;;;;;4146865;28;20050;-63
2022/05/23 02:55:21;;;;;;;0.00;0.00;;;20.90;62.50;;;;;;4146866;28;20093;-64
2022/05/23 02:57:45;;;;;;;0.00;0.00;;;20.90;62.50;;;;;;4162116;28;20061;-63
2022/05/23 03:00:16;;;;;;;0.13;0.13;;;20.80;62.40;;;;;;4147179;28;20148;-63
2022/05/23 03:05:26;;;;;;;0.88;0.60;;;20.80;62.40;;;;;;4146956;28;20046;-63
2022/05/23 03:07:50;;;;;;;0.00;0.00;;;20.90;62.50;;;;;;4161072;28;20136;-63
2022/05/23 03:10:12;;;;;;;0.00;0.00;;;20.80;62.40;;;;;;4132503;28;20089;-63
2022/05/23 03:12:35;;;;;;;0.00;0.00;;;20.80;62.40;;;;;;4131276;28;20048;-63
2022/05/23 03:14:57;;;;;;;0.00;0.00;;;20.80;62.30;;;;;;4126395;28;20466;-63
2022/05/23 03:17:20;;;;;;;0.00;0.00;;;20.80;62.30;;;;;;4162202;28;20057;-63
2022/05/23 03:19:42;;;;;;;0.00;0.00;;;20.80;62.40;;;;;;4147257;28;20470;-63
2022/05/23 03:27:28;;;;;;;0.00;0.00;;;20.80;62.40;;;;;;4146640;28;20073;-63
2022/05/23 03:29:57;;;;;;;0.00;0.00;;;20.80;62.40;;;;;;4146567;28;20412;-63
2022/05/23 03:32:26;;;;;;;0.00;0.00;;;20.80;62.50;;;;;;4147166;28;20144;-63
2022/05/23 03:34:48;;;;;;;0.00;0.00;;;20.80;62.50;;;;;;4146943;28;20049;-63
2022/05/23 03:37:16;;;;;;;0.00;0.00;;;20.80;62.40;;;;;;4146862;28;20468;-63
2022/05/23 03:39:39;;;;;;;0.75;0.75;;;20.80;62.50;;;;;;4161906;28;20057;-63
2022/05/23 03:42:01;;;;;;;0.00;0.00;;;20.80;62.50;;;;;;4161918;28;20049;-64
2022/05/23 03:44:24;;;;;;;0.00;0.00;;;20.80;62.50;;;;;;4146257;28;20050;-64
2022/05/23 03:46:46;;;;;;;0.10;0.10;;;20.70;62.40;;;;;;4146807;28;20516;-64
2022/05/23 03:49:08;;;;;;;0.00;0.00;;;20.70;62.40;;;;;;4161743;28;20488;-63
2022/05/23 03:51:31;;;;;;;0.00;0.00;;;20.70;62.40;;;;;;4146504;28;20052;-63
2022/05/23 03:53:54;;;;;;;0.00;0.00;;;20.70;62.40;;;;;;4146082;28;20116;-63
2022/05/23 03:56:17;;;;;;;0.00;0.00;;;20.70;63.30;;;;;;4161418;28;20037;-63
2022/05/23 03:58:43;;;;;;;0.00;0.00;;;20.70;63.30;;;;;;4145938;28;20045;-63
2022/05/23 04:01:16;;;;;;;0.00;0.00;;;20.70;62.50;;;;;;4146921;28;20069;-64
2022/05/23 04:03:42;;;;;;;0.00;0.00;;;20.70;62.50;;;;;;4145250;28;20112;-63
2022/05/23 04:06:06;;;;;;;0.73;0.73;;;20.70;62.50;;;;;;4146393;28;20046;-63
2022/05/23 04:08:31;;;;;;;4.18;1.60;;;20.70;62.80;;;;;;4145840;28;20042;-64
2022/05/23 04:10:58;;;;;;;0.00;0.00;;;20.70;62.90;;;;;;4146550;28;20097;-63
2022/05/23 04:13:20;;;;;;;0.20;0.20;;;20.70;62.80;;;;;;4160668;28;20126;-63
2022/05/23 04:15:42;;;;;;;0.00;0.00;;;20.70;62.80;;;;;;4144725;28;20049;-62
2022/05/23 04:18:06;;;;;;;3.40;0.90;;;20.70;62.80;;;;;;4140789;28;20092;-63
2022/05/23 04:20:28;;;;;;;0.00;0.00;;;20.70;62.70;;;;;;4145755;28;20041;-63
2022/05/23 04:23:08;;;;;;;0.13;0.13;;;20.70;62.80;;;;;;4145770;28;20045;-63
2022/05/23 04:25:32;;;;;;;0.00;0.00;;;20.70;63.70;;;;;;4115845;28;20054;-63
2022/05/23 04:27:56;;;;;;;0.20;0.20;;;20.70;62.80;;;;;;4129780;28;20050;-64
2022/05/23 04:30:18;;;;;;;0.17;0.17;;;20.70;62.80;;;;;;4116329;28;20458;-63
2022/05/23 04:35:32;;;;;;;;;;;20.70;62.80;;;;;;4049863;29;20467;-62
2022/05/23 04:37:56;;;;;;;0.00;0.00;;;20.70;62.80;;;;;;4098665;28;19922;-62
2022/05/23 04:40:28;;;;;;;2.30;0.70;;;20.70;62.80;;;;;;4127706;28;20042;-62
2022/05/23 04:42:50;;;;;;;0.00;0.00;;;20.70;62.90;;;;;;4137004;28;20046;-65
2022/05/23 04:45:15;;;;;;;0.00;0.00;;;20.70;63.10;;;;;;4118976;28;20054;-65
2022/05/23 04:50:25;;;;;;;0.00;0.00;;;20.70;63.40;;;;;;4128299;28;20061;-62
2022/05/23 04:52:53;;;;;;;0.00;0.00;;;20.70;63.30;;;;;;4115739;28;20126;-62
2022/05/23 04:55:18;;;;;;;0.00;0.00;;;20.70;63.10;;;;;;4159618;28;20045;-62
2022/05/23 04:57:41;;;;;;;0.50;0.20;;;20.70;63.10;;;;;;4145650;28;20104;-62
2022/05/23 05:00:07;;;;;;;0.30;0.30;;;20.70;63.00;;;;;;4160426;28;20068;-62
2022/05/23 05:02:36;;;;;;;;;;;20.70;63.00;;;;;;4131614;28;20049;-63
2022/05/23 05:04:59;;;;;;;0.13;0.13;;;20.70;63.00;;;;;;4131278;28;19922;-64
2022/05/23 05:07:21;;;;;;;0.00;0.00;;;20.70;62.90;;;;;;4145365;28;20045;-64
2022/05/23 05:09:46;;;;;;;0.00;0.00;;;20.70;63.00;;;;;;4131167;28;20487;-65
2022/05/23 05:12:08;;;;;;;0.00;0.00;;;20.70;63.10;;;;;;4159940;28;20049;-67
2022/05/23 05:14:34;;;;;;;0.10;0.10;;;20.70;63.10;;;;;;4143946;28;20073;-66
2022/05/23 05:17:00;;;;;;;0.00;0.00;;;20.70;63.20;;;;;;4144814;28;20057;-65
2022/05/23 05:19:23;;;;;;;0.00;0.00;;;20.60;63.20;;;;;;4144874;28;20050;-65
2022/05/23 05:21:48;;;;;;;0.00;0.00;;;20.60;63.20;;;;;;4159849;28;20072;-64
2022/05/23 05:24:39;;;;;;;1.98;1.27;;;20.70;64.20;;;;;;4159386;28;20048;-64
2022/05/23 05:27:24;;;;;;;0.00;0.00;;;20.70;63.30;;;;;;4159429;28;20041;-64
2022/05/23 05:29:47;;;;;;;0.10;0.10;;;20.70;63.20;;;;;;4144687;28;20050;-64
2022/05/23 05:32:14;;;;;;;0.85;0.85;;;20.70;63.20;;;;;;4145312;28;20120;-64
2022/05/23 05:34:42;;;;;;;0.00;0.00;;;20.70;63.20;;;;;;4144124;28;20057;-64
2022/05/23 05:37:11;;;;;;;1.48;0.85;;;20.70;63.10;;;;;;4159857;28;20053;-63
2022/05/23 05:39:36;;;;;;;0.00;0.00;;;20.80;63.20;;;;;;4144843;28;20060;-63
2022/05/23 05:42:04;;;;;;;0.10;0.10;;;20.80;63.30;;;;;;4131017;28;20073;-64
2022/05/23 05:44:36;;;;;;;0.13;0.13;;;20.80;63.50;;;;;;4130881;28;20101;-64
2022/05/23 05:47:06;;;;;;;0.00;0.00;;;20.80;63.70;;;;;;4128372;28;20497;-64
2022/05/23 05:50:07;;;;;;;0.00;0.00;;;20.80;63.90;;;;;;4124389;28;20046;-64
2022/05/23 05:52:40;;;;;;;0.00;0.00;;;20.80;63.80;;;;;;4126353;28;20043;-69
2022/05/23 05:55:03;;;;;;;2.72;1.27;;;20.80;64.00;;;;;;4121886;28;20129;-66
2022/05/23 05:57:26;;;;;;;0.20;0.20;;;20.80;64.40;;;;;;4126147;28;20585;-65
2022/05/23 05:59:53;;;;;;;1.50;1.40;;;20.90;64.30;;;;;;4125774;28;20097;-66
2022/05/23 06:02:17;;;;;;;0.00;0.00;;;20.90;64.10;;;;;;4112869;28;20493;-65
2022/05/23 06:04:40;;;;;;;0.20;0.20;;;20.90;64.10;;;;;;4125652;28;20057;-65
2022/05/23 06:12:40;;;;;;;0.10;0.10;;;20.90;63.40;;;;;;4125592;28;20054;-66
2022/05/23 06:15:26;;;;;;;0.85;0.70;;;20.90;63.20;;;;;;4122491;28;20129;-66
2022/05/23 06:17:50;;;;;;;0.00;0.00;;;20.90;63.10;;;;;;4125905;28;20077;-67
2022/05/23 06:20:14;;;;;;;0.00;0.00;;;20.90;63.10;;;;;;4125369;28;20069;-66
2022/05/23 06:22:42;;;;;;;0.20;0.20;;;20.90;63.10;;;;;;4126058;28;20389;-66
2022/05/23 06:25:09;;;;;;;0.38;0.30;;;20.90;63.20;;;;;;4126033;28;20043;-66
2022/05/23 06:27:33;;;;;;;0.00;0.00;;;20.90;63.20;;;;;;4128151;28;20042;-67
2022/05/23 06:30:06;;;;;;;0.13;0.13;;;20.80;63.10;;;;;;4128909;28;20502;-63
2022/05/23 06:32:37;;;;;;;0.00;0.00;;;20.90;63.10;;;;;;4128799;28;20129;-65
2022/05/23 06:35:00;;;;;;;0.30;0.30;;;20.90;62.80;;;;;;4115098;28;20051;-64
2022/05/23 06:37:27;;;;;;;0.00;0.00;;;20.90;62.80;;;;;;4128917;28;20132;-64
2022/05/23 06:40:04;;;;;;;0.00;0.00;;;20.90;62.80;;;;;;4126244;28;20050;-64
2022/05/23 06:42:47;;;;;;;0.00;0.00;;;20.90;62.70;;;;;;4119313;28;20137;-64
2022/05/23 06:45:41;;;;;;;0.10;0.10;;;20.90;62.70;;;;;;4126978;28;20485;-65
2022/05/23 06:48:19;;;;;;;0.20;0.20;;;20.90;62.50;;;;;;4147758;28;20061;-64
2022/05/23 06:50:51;;;;;;;5.93;0.85;;;20.90;62.20;;;;;;4144383;28;20073;-64
2022/05/23 06:53:17;;;;;;;0.00;0.00;;;21.00;62.20;;;;;;4144804;28;20124;-66
2022/05/23 06:55:52;;;;;;;0.10;0.10;;;21.00;62.30;;;;;;4129976;28;20061;-67
2022/05/23 06:58:16;;;;;;;0.00;0.00;;;21.00;62.40;;;;;;4144515;28;20058;-66
2022/05/23 07:00:40;;;;;;;0.10;0.10;;;21.10;62.30;;;;;;4144555;28;20548;-66
2022/05/23 07:03:07;;;;;;;0.00;0.00;;;21.10;62.20;;;;;;4144420;28;20132;-67
2022/05/23 07:13:39;;;;;;;0.00;0.00;;;21.10;61.90;;;;;;4143586;28;20382;-66
2022/05/23 07:16:01;;;;;;;0.10;0.10;;;21.20;62.00;;;;;;4158509;28;20057;-66
2022/05/23 07:18:27;;;;;;;0.00;0.00;;;21.20;62.00;;;;;;4144514;28;20133;-66
2022/05/23 07:20:49;;;;;;;0.00;0.00;;;21.20;62.00;;;;;;4130038;28;20050;-66
2022/05/23 07:23:38;;;;;;;0.00;0.00;;;21.20;62.00;;;;;;4149308;28;20448;-66
2022/05/23 07:26:20;;;;;;;0.20;0.20;;;21.20;61.90;;;;;;4143791;28;20057;-67
2022/05/23 07:28:47;;;;;;;0.00;0.00;;;21.20;61.90;;;;;;4143568;28;20057;-66
2022/05/23 07:31:11;;;;;;;0.00;0.00;;;21.30;61.90;;;;;;4144405;28;20042;-66
2022/05/23 07:33:33;;;;;;;0.00;0.00;;;21.30;62.00;;;;;;4130047;28;20423;-70
2022/05/23 07:35:56;;;;;;;1.13;0.75;;;21.30;62.00;;;;;;4143800;28;20068;-70
2022/05/23 07:38:18;;;;;;;1.02;0.82;;;21.30;62.10;;;;;;4143261;28;20575;-62
2022/05/23 07:40:42;;;;;;;0.00;0.00;;;21.40;62.10;;;;;;4143831;28;20072;-63
2022/05/23 07:43:13;;;;;;;0.00;0.00;;;21.40;62.00;;;;;;4143081;28;20509;-63
2022/05/23 07:45:36;;;;;;;0.00;0.00;;;21.40;62.00;;;;;;4143530;28;20050;-63
2022/05/23 07:47:58;;;;;;;0.00;0.00;;;21.50;62.00;;;;;;4143560;28;20057;-62
2022/05/23 07:50:25;;;;;;;0.13;0.13;;;21.50;61.90;;;;;;4143275;28;20052;-62
2022/05/23 08:00:55;;;;;;;0.00;0.00;;;21.50;61.90;;;;;;4139646;28;20041;-70
2022/05/23 08:03:19;;;;;;;0.00;0.00;;;21.50;61.80;;;;;;4143106;28;20081;-71
2022/05/23 08:05:57;;;;;;;0.30;0.30;;;21.50;61.80;;;;;;4143628;28;20145;-71
2022/05/23 08:08:19;;;;;;;0.15;0.15;;;21.50;61.80;;;;;;4143204;28;20045;-70
2022/05/23 08:10:42;;;;;;;2.05;1.27;;;21.60;61.80;;;;;;4143102;28;20508;-73
2022/05/23 08:13:09;;;;;;;0.00;0.00;;;21.60;61.80;;;;;;4142679;28;20181;-62
2022/05/23 08:15:33;;;;;;;0.10;0.10;;;21.60;61.70;;;;;;4142942;28;20078;-68
2022/05/23 08:18:01;;;;;;;0.00;0.00;;;21.60;61.70;;;;;;4142738;28;20076;-70
2022/05/23 08:20:30;;;;;;;0.00;0.00;;;21.60;61.70;;;;;;4142952;28;20050;-63
2022/05/23 08:22:55;;;;;;;0.00;0.00;;;21.60;61.60;;;;;;4157790;28;20045;-62
2022/05/23 08:25:26;;;;;;;0.10;0.10;;;21.70;61.70;;;;;;4142776;28;20038;-62
2022/05/23 08:27:53;;;;;;;0.00;0.00;;;21.70;61.60;;;;;;4143593;28;20042;-62
2022/05/23 08:30:15;;;;;;;0.00;0.00;;;21.80;61.50;;;;;;4128582;28;20050;-64
2022/05/23 08:32:39;;;;;;;3.42;1.00;;;21.80;61.50;;;;;;4142382;28;20046;-73
2022/05/23 08:35:09;;;;;;;1.15;1.08;;;21.80;62.20;;;;;;4142860;28;20452;-72
2022/05/23 08:37:32;;;;;;;0.00;0.00;;;21.90;61.30;;;;;;4143237;28;20472;-63
2022/05/23 08:39:54;;;;;;;0.00;0.00;;;21.90;62.10;;;;;;4129156;28;20537;-63
2022/05/23 08:42:28;;;;;;;0.10;0.10;;;21.90;61.20;;;;;;4142698;28;20060;-71
2022/05/23 08:45:15;;;;;;;0.00;0.00;;;22.00;61.20;;;;;;4142773;28;20088;-72
2022/05/23 08:47:52;;;;;;;0.00;0.00;;;22.00;61.10;;;;;;4141350;28;20052;-72
2022/05/23 08:50:18;;;;;;;0.00;0.00;;;22.00;61.00;;;;;;4127203;28;20070;-71
2022/05/23 08:52:46;;;;;;;0.75;0.70;;;22.10;61.10;;;;;;4142295;28;20050;-71
2022/05/23 08:55:28;;;;;;;0.00;0.00;;;22.10;61.10;;;;;;4142774;28;20053;-71
2022/05/23 08:58:17;;;;;;;0.03;0.03;;;22.10;61.00;;;;;;4157154;28;20115;-72
2022/05/23 09:00:43;;;;;;;1.13;0.70;;;22.10;61.00;;;;;;4142547;28;20176;-72
2022/05/23 09:03:13;;;;;;;0.00;0.00;;;22.10;61.00;;;;;;4142266;28;20503;-70
2022/05/23 09:05:44;;;;;;;1.33;1.25;;;22.10;60.90;;;;;;4142195;28;20152;-70
2022/05/23 09:08:32;;;;;;;0.00;0.00;;;22.20;61.00;;;;;;4156810;28;20065;-71
2022/05/23 09:10:59;;;;;;;0.00;0.00;;;22.20;61.00;;;;;;4157445;28;20064;-71
2022/05/23 09:13:22;;;;;;;0.38;0.30;;;22.20;60.90;;;;;;4156891;28;20543;-70
2022/05/23 09:15:46;;;;;;;0.35;0.35;;;22.20;60.90;;;;;;4157485;28;20050;-71
2022/05/23 09:18:17;;;;;;;0.00;0.00;;;22.30;60.80;;;;;;4156153;28;20103;-71
2022/05/23 09:20:43;;;;;;;0.00;0.00;;;22.30;60.80;;;;;;4157086;28;20049;-71
2022/05/23 09:23:10;;;;;;;0.00;0.00;;;22.30;60.70;;;;;;4156643;28;20072;-70
2022/05/23 09:25:40;;;;;;;0.00;0.00;;;22.40;60.70;;;;;;4157106;28;20057;-71
2022/05/23 09:28:16;;;;;;;0.00;0.00;;;22.40;60.60;;;;;;4157255;28;20064;-70
2022/05/23 09:30:40;;;;;;;0.00;0.00;;;22.40;60.50;;;;;;4157428;28;20045;-71
2022/05/23 09:33:12;;;;;;;0.10;0.10;;;22.50;60.40;;;;;;4158035;28;20129;-63
2022/05/23 09:35:49;;;;;;;0.10;0.10;;;22.60;60.40;;;;;;4156228;28;20465;-63
2022/05/23 09:38:16;;;;;;;0.20;0.20;;;22.60;60.30;;;;;;4156673;28;20045;-62
2022/05/23 09:40:59;;;;;;;0.10;0.10;;;22.70;60.30;;;;;;4141924;28;20046;-62
2022/05/23 09:49:08;;;;;;;1.38;1.27;;;22.80;60.90;;;;;;4156437;28;20049;-63
2022/05/23 09:51:31;;;;;;;0.43;0.43;;;22.90;60.10;;;;;;4156713;28;20394;-63
2022/05/23 09:53:54;;;;;;;0.30;0.30;;;22.90;60.30;;;;;;4156714;28;20045;-63
2022/05/23 09:56:40;;;;;;;0.57;0.57;;;23.00;60.20;;;;;;4141547;28;20053;-73
2022/05/23 09:59:06;;;;;;;0.00;0.00;;;23.00;60.00;;;;;;4157518;28;20051;-70
2022/05/23 10:01:36;;;;;;;0.00;0.00;;;23.00;60.00;;;;;;4158018;28;20049;-72
2022/05/23 10:03:59;;;;;;;0.00;0.00;;;23.10;59.90;;;;;;4161270;28;20067;-71
2022/05/23 10:06:34;;;;;;;0.00;0.00;;;23.10;59.70;;;;;;4160869;28;20073;-72
2022/05/23 10:08:57;;;;;;;0.05;0.05;;;23.10;59.70;;;;;;4161187;28;20049;-71
2022/05/23 10:11:30;;;;;;;0.10;0.10;;;23.20;59.60;;;;;;4146006;28;20073;-71
2022/05/23 10:13:55;;;;;;;0.30;0.30;;;23.20;59.60;;;;;;4161196;28;20302;-72
2022/05/23 10:16:24;;;;;;;0.00;0.00;;;23.30;59.50;;;;;;4144959;28;20044;-70
2022/05/23 10:18:50;;;;;;;0.35;0.30;;;23.30;59.40;;;;;;4159427;28;20080;-70
2022/05/23 10:21:26;;;;;;;1.20;0.32;;;23.30;59.30;;;;;;4160539;28;20547;-71
2022/05/23 10:24:01;;;;;;;0.00;0.00;;;23.30;59.30;;;;;;4159606;28;20145;-71
2022/05/23 10:26:25;;;;;;;0.00;0.00;;;23.40;59.10;;;;;;4159537;28;20135;-71
2022/05/23 10:28:53;;;;;;;0.00;0.00;;;23.40;59.10;;;;;;4144864;28;20426;-71
2022/05/23 10:31:22;;;;;;;0.00;0.00;;;23.40;59.00;;;;;;4159520;28;20087;-70
2022/05/23 10:33:47;;;;;;;0.00;0.00;;;23.50;59.00;;;;;;4159710;28;20045;-63
2022/05/23 10:36:15;;;;;;;0.10;0.10;;;23.50;58.90;;;;;;4159793;28;20072;-62
2022/05/23 10:44:32;;;;;;;0.00;0.00;;;23.50;58.70;;;;;;4144890;28;20053;-71
2022/05/23 10:47:10;;;;;;;0.10;0.10;;;23.50;58.60;;;;;;4150595;28;20049;-63
2022/05/23 10:49:45;;;;;;;0.00;0.00;;;23.50;58.60;;;;;;4159518;28;20141;-62
2022/05/23 10:52:13;;;;;;;0.20;0.20;;;23.50;58.60;;;;;;4143663;28;20077;-63
2022/05/23 10:54:45;;;;;;;0.30;0.30;;;23.50;58.50;;;;;;4159471;28;20099;-63
2022/05/23 10:57:20;;;;;;;0.00;0.00;;;23.50;58.50;;;;;;4130334;28;20524;-63
2022/05/23 10:59:54;;;;;;;0.00;0.00;;;23.50;58.50;;;;;;4138163;28;20049;-63
2022/05/23 11:02:31;;;;;;;1.00;0.28;;;23.50;58.40;;;;;;4131626;28;20054;-72
2022/05/23 11:05:06;;;;;;;0.00;0.00;;;23.60;58.50;;;;;;4135456;28;20046;-72
2022/05/23 11:07:36;;;;;;;0.00;0.00;;;23.60;58.40;;;;;;4138861;28;20053;-72
2022/05/23 11:10:08;;;;;;;0.20;0.20;;;23.60;58.40;;;;;;4158863;28;20065;-70
2022/05/23 11:12:58;;;;;;;0.00;0.00;;;23.60;58.30;;;;;;4159676;28;20053;-67
2022/05/23 11:15:35;;;;;;;0.20;0.20;;;23.70;58.20;;;;;;4143286;28;20137;-71
2022/05/23 11:18:06;;;;;;;0.00;0.00;;;23.70;58.30;;;;;;4158933;28;20050;-72
2022/05/23 11:20:34;;;;;;;0.10;0.10;;;23.70;58.20;;;;;;4158918;28;20045;-71
2022/05/23 11:23:04;;;;;;;0.00;0.00;;;23.70;58.10;;;;;;4158563;28;20064;-69
2022/05/23 11:25:31;;;;;;;0.20;0.20;;;23.70;58.00;;;;;;4144028;28;20477;-72
2022/05/23 11:33:48;;;;;;;0.00;0.00;;;23.90;57.70;;;;;;4158370;28;20072;-72
2022/05/23 11:36:15;;;;;;;0.00;0.00;;;23.90;57.50;;;;;;4158709;28;20055;-71
2022/05/23 11:38:44;;;;;;;0.00;0.00;;;23.90;57.30;;;;;;4158488;28;20140;-62
2022/05/23 11:41:11;;;;;;;0.00;0.00;;;23.90;57.20;;;;;;4150327;28;20061;-66
2022/05/23 11:43:36;;;;;;;0.10;0.10;;;23.90;57.30;;;;;;4147606;28;20103;-70
2022/05/23 11:46:02;;;;;;;0.00;0.00;;;24.00;57.20;;;;;;4145748;28;20052;-71
2022/05/23 11:48:52;;;;;;;0.00;0.00;;;24.00;57.20;;;;;;4159045;28;20057;-71
2022/05/23 11:51:36;;;;;;;0.23;0.23;;;24.00;56.80;;;;;;4143357;28;20136;-72
2022/05/23 11:54:08;;;;;;;0.00;0.00;;;24.10;56.70;;;;;;4158262;28;20053;-72
2022/05/23 11:56:46;;;;;;;0.00;0.00;;;24.10;56.70;;;;;;4143548;28;20160;-71
2022/05/23 11:59:10;;;;;;;0.00;0.00;;;24.10;56.70;;;;;;4157779;28;20049;-71
2022/05/23 12:01:36;;;;;;;0.00;0.00;;;24.10;56.60;;;;;;4157618;28;20555;-71
2022/05/23 12:04:27;;;;;;;0.17;0.17;;;24.10;56.40;;;;;;4142334;28;20051;-70
2022/05/23 12:06:50;;;;;;;0.00;0.00;;;24.20;56.40;;;;;;4157624;28;20041;-72
2022/05/23 12:09:36;;;;;;;0.20;0.20;;;24.20;56.20;;;;;;4143421;28;20151;-72
2022/05/23 12:12:47;;;;;;;0.00;0.00;;;24.20;56.20;;;;;;4158085;28;20049;-71
2022/05/23 12:15:11;;;;;;;0.28;0.28;;;24.20;56.10;;;;;;4157947;28;20045;-72
2022/05/23 12:17:33;;;;;;;0.20;0.20;;;24.30;56.10;;;;;;4156843;28;20111;-70
2022/05/23 12:19:58;;;;;;;0.20;0.20;;;24.30;56.00;;;;;;4158002;28;20103;-66
2022/05/23 12:22:35;;;;;;;0.00;0.00;;;24.30;55.90;;;;;;4142693;28;20077;-65
2022/05/23 12:25:26;;;;;;;0.00;0.00;;;24.30;55.80;;;;;;4157210;28;20599;-65
2022/05/23 12:28:20;;;;;;;0.00;0.00;;;24.40;55.70;;;;;;4157655;28;20048;-65
2022/05/23 12:31:17;;;;;;;0.00;0.00;;;24.40;55.70;;;;;;4155239;28;20060;-67
2022/05/23 12:33:48;;;;;;;0.08;0.08;;;24.40;55.50;;;;;;4158042;28;20408;-65
2022/05/23 12:36:13;;;;;;;3.20;2.05;;;24.40;55.50;;;;;;4157939;28;20083;-65
2022/05/23 12:39:27;;;;;;;0.38;0.38;;;24.40;55.40;;;;;;4154753;28;20049;-66
2022/05/23 12:42:13;;;;;;;0.00;0.00;;;24.40;55.40;;;;;;4157913;28;20053;-72
2022/05/23 12:45:21;;;;;;;0.00;0.00;;;24.40;55.40;;;;;;4157273;28;20050;-66
2022/05/23 12:48:10;;;;;;;0.00;0.00;;;24.50;55.40;;;;;;4093236;28;20070;-66
2022/05/23 12:50:45;;;;;;;0.00;0.00;;;24.50;55.40;;;;;;4158040;28;20045;-64
2022/05/23 12:53:39;;;;;;;0.75;0.55;;;24.50;55.50;;;;;;4156492;28;20037;-66
2022/05/23 12:56:18;;;;;;;0.47;0.47;;;24.50;55.60;;;;;;4157857;28;20065;-65
2022/05/23 12:59:06;;;;;;;0.00;0.00;;;24.50;55.50;;;;;;4157142;28;20056;-66
2022/05/23 13:01:32;;;;;;;0.00;0.00;;;24.60;55.50;;;;;;4157635;28;20057;-66
2022/05/23 13:04:03;;;;;;;0.00;0.00;;;24.60;55.50;;;;;;4157507;28;20049;-65
2022/05/23 13:06:33;;;;;;;0.00;0.00;;;24.60;55.50;;;;;;4142181;28;20129;-65
2022/05/23 13:09:01;;;;;;;0.00;0.00;;;24.60;55.50;;;;;;4142587;28;20104;-66
2022/05/23 13:11:29;;;;;;;0.03;0.03;;;24.60;55.40;;;;;;4156897;28;20471;-66
2022/05/23 13:13:53;;;;;;;0.00;0.00;;;24.60;55.40;;;;;;4156731;28;20128;-67
2022/05/23 13:16:21;;;;;;;0.10;0.10;;;24.60;55.40;;;;;;4157032;28;20203;-66
2022/05/23 13:24:08;;;;;;;0.25;0.25;;;24.60;55.50;;;;;;4157334;28;20041;-67
2022/05/23 13:26:31;;;;;;;0.05;0.05;;;24.50;55.50;;;;;;4157101;28;20071;-74
2022/05/23 13:29:02;;;;;;;0.60;0.60;;;24.50;55.50;;;;;;4156662;28;20198;-73
2022/05/23 13:31:27;;;;;;;0.00;0.00;;;24.60;55.70;;;;;;4157160;28;20345;-74
2022/05/23 13:33:49;;;;;;;0.00;0.00;;;24.50;55.60;;;;;;4157215;28;20049;-72
2022/05/23 13:36:12;;;;;;;0.00;0.00;;;24.50;55.70;;;;;;4156177;28;20509;-73
2022/05/23 13:38:43;;;;;;;0.00;0.00;;;24.50;55.80;;;;;;4157456;28;20049;-67
2022/05/23 13:41:07;;;;;;;0.20;0.20;;;24.50;55.80;;;;;;4158790;28;20049;-68
2022/05/23 13:43:31;;;;;;;0.00;0.00;;;24.60;55.80;;;;;;4125932;28;20490;-68
2022/05/23 13:46:07;;;;;;;0.00;0.00;;;24.60;55.90;;;;;;4142298;28;20096;-73
2022/05/23 13:48:39;;;;;;;0.00;0.00;;;24.50;55.90;;;;;;4143428;28;20050;-71
2022/05/23 13:51:11;;;;;;;0.00;0.00;;;24.60;56.00;;;;;;4142144;28;20050;-71
2022/05/23 13:53:40;;;;;;;0.30;0.30;;;24.60;56.00;;;;;;4154912;28;20047;-71
2022/05/23 13:56:03;;;;;;;0.10;0.10;;;24.50;56.00;;;;;;4159815;28;20396;-71
2022/05/23 13:58:29;;;;;;;0.30;0.30;;;24.50;56.10;;;;;;4159810;28;20049;-71
2022/05/23 14:00:56;;;;;;;0.00;0.00;;;24.50;56.20;;;;;;4159764;28;20056;-71
2022/05/23 14:03:22;;;;;;;0.00;0.00;;;24.50;56.30;;;;;;4159430;28;20140;-70
2022/05/23 14:05:48;;;;;;;0.00;0.00;;;24.50;56.50;;;;;;4159354;28;20133;-71